sensor_id;sensor_type;location;lat;lon;timestamp;pressure;altitude;pressure_sealevel;temperature;humidity
57572;BME280;44459;43.522;24.470;2023-02-02T00:01:17;100278.59;;;2.81;86.47
57572;BME280;44459;43.522;24.470;2023-02-02T00:03:43;100291.44;;;2.76;86.66
57572;BME280;44459;43.522;24.470;2023-02-02T00:06:09;100282.81;;;2.55;87.39
57572;BME280;44459;43.522;24.470;2023-02-02T00:08:34;100281.63;;;2.47;88.06
57572;BME280;44459;43.522;24.470;2023-02-02T00:11:01;100278.31;;;2.51;87.74
57572;BME280;44459;43.522;24.470;2023-02-02T00:13:26;100282.50;;;2.47;88.22
57572;BME280;44459;43.522;24.470;2023-02-02T00:15:52;100282.50;;;2.47;88.15
57572;BME280;44459;43.522;24.470;2023-02-02T00:18:18;100283.22;;;2.43;88.27
57572;BME280;44459;43.522;24.470;2023-02-02T00:20:43;100283.88;;;2.38;88.31
57572;BME280;44459;43.522;24.470;2023-02-02T00:23:11;100270.63;;;2.32;88.61
57572;BME280;44459;43.522;24.470;2023-02-02T00:25:37;100263.50;;;2.28;88.79
57572;BME280;44459;43.522;24.470;2023-02-02T00:28:02;100258.06;;;2.22;88.93
57572;BME280;44459;43.522;24.470;2023-02-02T00:30:28;100257.81;;;2.16;89.28
57572;BME280;44459;43.522;24.470;2023-02-02T00:32:53;100256.94;;;2.15;89.10
57572;BME280;44459;43.522;24.470;2023-02-02T00:35:19;100247.34;;;2.14;89.53
57572;BME280;44459;43.522;24.470;2023-02-02T00:37:44;100240.66;;;2.21;88.65
57572;BME280;44459;43.522;24.470;2023-02-02T00:40:10;100243.47;;;2.25;88.69
57572;BME280;44459;43.522;24.470;2023-02-02T00:42:36;100245.50;;;2.34;88.73
57572;BME280;44459;43.522;24.470;2023-02-02T00:45:03;100253.75;;;2.44;88.51
57572;BME280;44459;43.522;24.470;2023-02-02T00:47:42;100246.00;;;2.46;88.30
57572;BME280;44459;43.522;24.470;2023-02-02T00:50:10;100246.16;;;2.50;88.05
57572;BME280;44459;43.522;24.470;2023-02-02T00:52:36;100246.34;;;2.55;88.21
57572;BME280;44459;43.522;24.470;2023-02-02T00:55:02;100239.41;;;2.56;88.10
57572;BME280;44459;43.522;24.470;2023-02-02T00:57:27;100244.66;;;2.57;88.24
57572;BME280;44459;43.522;24.470;2023-02-02T00:59:52;100244.72;;;2.59;88.26
57572;BME280;44459;43.522;24.470;2023-02-02T01:02:18;100240.31;;;2.56;88.43
57572;BME280;44459;43.522;24.470;2023-02-02T01:04:43;100240.06;;;2.50;89.02
57572;BME280;44459;43.522;24.470;2023-02-02T01:07:09;100246.25;;;2.53;89.02
57572;BME280;44459;43.522;24.470;2023-02-02T01:09:34;100246.13;;;2.49;89.04
57572;BME280;44459;43.522;24.470;2023-02-02T01:11:59;100252.22;;;2.49;89.83
57572;BME280;44459;43.522;24.470;2023-02-02T01:14:25;100244.41;;;2.49;89.48
57572;BME280;44459;43.522;24.470;2023-02-02T01:16:50;100248.72;;;2.49;90.15
57572;BME280;44459;43.522;24.470;2023-02-02T01:19:16;100248.50;;;2.43;90.52
57572;BME280;44459;43.522;24.470;2023-02-02T01:21:42;100252.97;;;2.47;91.00
57572;BME280;44459;43.522;24.470;2023-02-02T01:24:07;100253.16;;;2.51;90.85
57572;BME280;44459;43.522;24.470;2023-02-02T01:26:33;100257.69;;;2.57;90.94
57572;BME280;44459;43.522;24.470;2023-02-02T01:28:58;100247.44;;;2.62;90.34
57572;BME280;44459;43.522;24.470;2023-02-02T01:31:24;100254.50;;;2.64;90.28
57572;BME280;44459;43.522;24.470;2023-02-02T01:33:50;100252.16;;;2.72;89.76
57572;BME280;44459;43.522;24.470;2023-02-02T01:36:18;100253.06;;;2.72;90.15
57572;BME280;44459;43.522;24.470;2023-02-02T01:38:44;100245.25;;;2.72;89.83
57572;BME280;44459;43.522;24.470;2023-02-02T01:41:15;100248.06;;;2.78;89.81
57572;BME280;44459;43.522;24.470;2023-02-02T01:46:15;100246.44;;;2.80;89.13
57572;BME280;44459;43.522;24.470;2023-02-02T01:48:42;100249.03;;;2.80;89.40
57572;BME280;44459;43.522;24.470;2023-02-02T01:51:13;100241.22;;;2.80;89.63
57572;BME280;44459;43.522;24.470;2023-02-02T01:53:41;100253.19;;;2.75;89.63
57572;BME280;44459;43.522;24.470;2023-02-02T01:56:09;100249.03;;;2.80;89.65
57572;BME280;44459;43.522;24.470;2023-02-02T01:58:38;100242.09;;;2.81;89.10
57572;BME280;44459;43.522;24.470;2023-02-02T02:01:06;100246.25;;;2.76;89.48
57572;BME280;44459;43.522;24.470;2023-02-02T02:03:34;100247.16;;;2.76;89.82
57572;BME280;44459;43.522;24.470;2023-02-02T02:06:04;100241.94;;;2.76;89.58
57572;BME280;44459;43.522;24.470;2023-02-02T02:08:37;100230.63;;;2.76;89.85
57572;BME280;44459;43.522;24.470;2023-02-02T02:11:03;100235.66;;;2.71;89.66
57572;BME280;44459;43.522;24.470;2023-02-02T02:13:30;100241.75;;;2.72;89.51
57572;BME280;44459;43.522;24.470;2023-02-02T02:16:45;100240.75;;;2.68;89.81
57572;BME280;44459;43.522;24.470;2023-02-02T02:22:13;100243.06;;;2.61;90.94
57572;BME280;44459;43.522;24.470;2023-02-02T02:25:09;100245.50;;;2.56;90.95
57572;BME280;44459;43.522;24.470;2023-02-02T02:36:33;100234.28;;;2.35;92.76
57572;BME280;44459;43.522;24.470;2023-02-02T02:41:36;100245.88;;;2.21;93.68
57572;BME280;44459;43.522;24.470;2023-02-02T02:44:08;100245.88;;;2.21;93.81
57572;BME280;44459;43.522;24.470;2023-02-02T02:46:36;100249.19;;;2.17;93.97
57572;BME280;44459;43.522;24.470;2023-02-02T02:49:02;100254.38;;;2.17;93.93
57572;BME280;44459;43.522;24.470;2023-02-02T02:51:49;100241.25;;;2.14;93.88
57572;BME280;44459;43.522;24.470;2023-02-02T02:54:29;100241.19;;;2.12;93.62
57572;BME280;44459;43.522;24.470;2023-02-02T03:02:52;100257.19;;;2.21;92.18
57572;BME280;44459;43.522;24.470;2023-02-02T03:10:30;100238.94;;;2.43;89.97
57572;BME280;44459;43.522;24.470;2023-02-02T03:12:57;100244.41;;;2.49;89.35
57572;BME280;44459;43.522;24.470;2023-02-02T03:15:22;100234.72;;;2.47;89.34
57572;BME280;44459;43.522;24.470;2023-02-02T03:17:49;100241.84;;;2.51;89.25
57572;BME280;44459;43.522;24.470;2023-02-02T03:20:16;100243.72;;;2.55;88.68
57572;BME280;44459;43.522;24.470;2023-02-02T03:22:42;100247.41;;;2.60;88.40
57572;BME280;44459;43.522;24.470;2023-02-02T03:25:07;100251.06;;;2.65;88.34
57572;BME280;44459;43.522;24.470;2023-02-02T03:27:36;100244.31;;;2.70;88.04
57572;BME280;44459;43.522;24.470;2023-02-02T03:30:04;100238.22;;;2.70;87.41
57572;BME280;44459;43.522;24.470;2023-02-02T03:32:30;100241.03;;;2.76;87.47
57572;BME280;44459;43.522;24.470;2023-02-02T03:34:55;100223.63;;;2.75;86.94
57572;BME280;44459;43.522;24.470;2023-02-02T03:37:21;100233.22;;;2.76;86.47
57572;BME280;44459;43.522;24.470;2023-02-02T03:39:46;100237.03;;;2.85;86.54
57572;BME280;44459;43.522;24.470;2023-02-02T03:42:12;100245.88;;;2.89;85.87
57572;BME280;44459;43.522;24.470;2023-02-02T03:44:37;100242.53;;;2.93;85.69
57572;BME280;44459;43.522;24.470;2023-02-02T03:47:02;100235.63;;;2.93;85.41
57572;BME280;44459;43.522;24.470;2023-02-02T03:49:28;100244.59;;;3.01;84.92
57572;BME280;44459;43.522;24.470;2023-02-02T03:51:53;100244.72;;;3.04;84.74
57572;BME280;44459;43.522;24.470;2023-02-02T03:54:19;100238.72;;;3.07;84.09
57572;BME280;44459;43.522;24.470;2023-02-02T03:56:44;100242.09;;;3.04;84.19
57572;BME280;44459;43.522;24.470;2023-02-02T03:59:09;100250.75;;;3.03;83.91
57572;BME280;44459;43.522;24.470;2023-02-02T04:01:35;100244.59;;;3.01;84.30
57572;BME280;44459;43.522;24.470;2023-02-02T04:04:00;100246.97;;;2.95;84.29
57572;BME280;44459;43.522;24.470;2023-02-02T04:06:26;100251.31;;;2.95;84.71
57572;BME280;44459;43.522;24.470;2023-02-02T04:08:51;100252.19;;;2.95;84.54
57572;BME280;44459;43.522;24.470;2023-02-02T04:11:17;100246.03;;;2.93;84.59
57572;BME280;44459;43.522;24.470;2023-02-02T04:13:42;100239.81;;;2.90;85.10
57572;BME280;44459;43.522;24.470;2023-02-02T04:16:08;100239.63;;;2.84;85.48
57572;BME280;44459;43.522;24.470;2023-02-02T04:18:34;100250.25;;;2.90;85.36
57572;BME280;44459;43.522;24.470;2023-02-02T04:21:03;100240.53;;;2.86;85.13
57572;BME280;44459;43.522;24.470;2023-02-02T04:23:29;100250.03;;;2.84;85.50
57572;BME280;44459;43.522;24.470;2023-02-02T04:25:56;100245.47;;;2.78;86.06
57572;BME280;44459;43.522;24.470;2023-02-02T04:28:22;100248.03;;;2.77;86.37
57572;BME280;44459;43.522;24.470;2023-02-02T04:30:52;100256.56;;;2.73;86.64
57572;BME280;44459;43.522;24.470;2023-02-02T04:33:18;100259.09;;;2.71;87.11
57572;BME280;44459;43.522;24.470;2023-02-02T04:35:44;100261.44;;;2.64;86.79
57572;BME280;44459;43.522;24.470;2023-02-02T04:38:10;100259.78;;;2.66;86.87
57572;BME280;44459;43.522;24.470;2023-02-02T04:40:44;100268.38;;;2.63;86.83
57572;BME280;44459;43.522;24.470;2023-02-02T04:43:10;100268.38;;;2.63;86.94
57572;BME280;44459;43.522;24.470;2023-02-02T04:45:36;100265.88;;;2.66;86.57
57572;BME280;44459;43.522;24.470;2023-02-02T04:48:01;100268.47;;;2.66;86.41
57572;BME280;44459;43.522;24.470;2023-02-02T04:50:27;100265.69;;;2.62;86.74
57572;BME280;44459;43.522;24.470;2023-02-02T04:52:53;100279.69;;;2.64;86.31
57572;BME280;44459;43.522;24.470;2023-02-02T04:55:18;100270.91;;;2.62;86.25
57572;BME280;44459;43.522;24.470;2023-02-02T04:57:44;100284.00;;;2.63;86.09
57572;BME280;44459;43.522;24.470;2023-02-02T05:00:10;100284.72;;;2.59;86.48
57572;BME280;44459;43.522;24.470;2023-02-02T05:02:40;100280.19;;;2.55;87.02
57572;BME280;44459;43.522;24.470;2023-02-02T05:05:06;100281.03;;;2.54;86.96
57572;BME280;44459;43.522;24.470;2023-02-02T05:07:32;100277.06;;;2.41;87.72
57572;BME280;44459;43.522;24.470;2023-02-02T05:09:57;100287.41;;;2.40;87.50
57572;BME280;44459;43.522;24.470;2023-02-02T05:12:23;100283.06;;;2.39;88.15
57572;BME280;44459;43.522;24.470;2023-02-02T05:14:48;100289.78;;;2.34;88.34
57572;BME280;44459;43.522;24.470;2023-02-02T05:17:13;100286.25;;;2.32;88.19
57572;BME280;44459;43.522;24.470;2023-02-02T05:19:40;100273.81;;;2.25;87.93
57572;BME280;44459;43.522;24.470;2023-02-02T05:22:05;100277.22;;;2.24;88.24
57572;BME280;44459;43.522;24.470;2023-02-02T05:24:30;100284.38;;;2.29;87.88
57572;BME280;44459;43.522;24.470;2023-02-02T05:26:56;100294.00;;;2.30;87.65
57572;BME280;44459;43.522;24.470;2023-02-02T05:29:25;100281.50;;;2.22;87.88
57572;BME280;44459;43.522;24.470;2023-02-02T05:31:50;100298.06;;;2.24;87.87
57572;BME280;44459;43.522;24.470;2023-02-02T05:34:16;100292.63;;;2.18;87.57
57572;BME280;44459;43.522;24.470;2023-02-02T05:36:41;100301.59;;;2.26;87.75
57572;BME280;44459;43.522;24.470;2023-02-02T05:39:08;100297.25;;;2.25;87.50
57572;BME280;44459;43.522;24.470;2023-02-02T05:41:34;100304.53;;;2.33;87.13
57572;BME280;44459;43.522;24.470;2023-02-02T05:43:59;100295.78;;;2.31;87.05
57572;BME280;44459;43.522;24.470;2023-02-02T05:46:25;100304.72;;;2.38;86.62
57572;BME280;44459;43.522;24.470;2023-02-02T05:48:50;100310.63;;;2.34;86.33
57572;BME280;44459;43.522;24.470;2023-02-02T05:51:19;100318.03;;;2.45;85.68
57572;BME280;44459;43.522;24.470;2023-02-02T05:53:45;100317.19;;;2.46;85.29
57572;BME280;44459;43.522;24.470;2023-02-02T05:56:12;100307.28;;;2.59;84.13
57572;BME280;44459;43.522;24.470;2023-02-02T05:58:40;100304.06;;;2.66;83.45
57572;BME280;44459;43.522;24.470;2023-02-02T06:01:05;100312.31;;;2.76;82.86
57572;BME280;44459;43.522;24.470;2023-02-02T06:03:31;100313.50;;;2.84;82.82
57572;BME280;44459;43.522;24.470;2023-02-02T06:05:56;100307.72;;;2.93;82.28
57572;BME280;44459;43.522;24.470;2023-02-02T06:08:22;100309.69;;;2.98;82.00
57572;BME280;44459;43.522;24.470;2023-02-02T06:10:47;100317.44;;;2.97;82.09
57572;BME280;44459;43.522;24.470;2023-02-02T06:13:13;100316.34;;;2.92;81.96
57572;BME280;44459;43.522;24.470;2023-02-02T06:15:38;100316.34;;;2.92;82.12
57572;BME280;44459;43.522;24.470;2023-02-02T06:18:06;100319.03;;;2.93;82.28
57572;BME280;44459;43.522;24.470;2023-02-02T06:20:32;100314.50;;;2.88;81.48
57572;BME280;44459;43.522;24.470;2023-02-02T06:22:57;100324.13;;;2.90;81.62
57572;BME280;44459;43.522;24.470;2023-02-02T06:25:23;100326.06;;;2.96;81.17
57572;BME280;44459;43.522;24.470;2023-02-02T06:27:48;100318.31;;;2.97;80.67
57572;BME280;44459;43.522;24.470;2023-02-02T06:30:14;100314.22;;;3.04;80.60
57572;BME280;44459;43.522;24.470;2023-02-02T06:32:40;100315.00;;;3.01;80.29
57572;BME280;44459;43.522;24.470;2023-02-02T06:35:06;100304.50;;;3.00;79.22
57572;BME280;44459;43.522;24.470;2023-02-02T06:37:32;100322.03;;;3.04;79.19
57572;BME280;44459;43.522;24.470;2023-02-02T06:39:58;100327.38;;;3.07;79.20
57572;BME280;44459;43.522;24.470;2023-02-02T06:42:24;100330.53;;;2.98;79.92
57572;BME280;44459;43.522;24.470;2023-02-02T06:44:49;100333.84;;;2.94;80.77
57572;BME280;44459;43.522;24.470;2023-02-02T06:47:15;100338.97;;;2.91;80.91
57572;BME280;44459;43.522;24.470;2023-02-02T06:49:41;100340.50;;;2.86;81.31
57572;BME280;44459;43.522;24.470;2023-02-02T06:52:06;100335.78;;;2.78;82.32
57572;BME280;44459;43.522;24.470;2023-02-02T06:54:32;100342.88;;;2.80;82.11
57572;BME280;44459;43.522;24.470;2023-02-02T06:56:57;100344.50;;;2.78;82.38
57572;BME280;44459;43.522;24.470;2023-02-02T06:59:23;100337.66;;;2.80;82.83
57572;BME280;44459;43.522;24.470;2023-02-02T07:01:49;100338.53;;;2.81;82.66
57572;BME280;44459;43.522;24.470;2023-02-02T07:04:18;100344.81;;;2.86;83.09
57572;BME280;44459;43.522;24.470;2023-02-02T07:06:44;100331.84;;;2.87;83.04
57572;BME280;44459;43.522;24.470;2023-02-02T07:09:10;100329.41;;;2.92;82.04
57572;BME280;44459;43.522;24.470;2023-02-02T07:11:35;100327.06;;;2.99;82.16
57572;BME280;44459;43.522;24.470;2023-02-02T07:14:02;100332.28;;;2.99;81.39
57572;BME280;44459;43.522;24.470;2023-02-02T07:16:27;100336.97;;;3.08;81.03
57572;BME280;44459;43.522;24.470;2023-02-02T07:18:52;100327.84;;;3.19;80.49
57572;BME280;44459;43.522;24.470;2023-02-02T07:21:20;100323.56;;;3.21;80.88
57572;BME280;44459;43.522;24.470;2023-02-02T07:23:46;100337.38;;;3.19;80.03
57572;BME280;44459;43.522;24.470;2023-02-02T07:26:12;100335.81;;;3.24;80.27
57572;BME280;44459;43.522;24.470;2023-02-02T07:28:39;100341.50;;;3.36;80.47
57572;BME280;44459;43.522;24.470;2023-02-02T07:31:29;100329.66;;;3.45;79.54
57572;BME280;44459;43.522;24.470;2023-02-02T07:33:55;100333.44;;;3.53;79.73
57572;BME280;44459;43.522;24.470;2023-02-02T07:36:23;100326.00;;;3.64;79.65
57572;BME280;44459;43.522;24.470;2023-02-02T07:38:50;100329.72;;;3.72;80.39
57572;BME280;44459;43.522;24.470;2023-02-02T07:41:18;100325.66;;;3.80;81.73
57572;BME280;44459;43.522;24.470;2023-02-02T07:43:46;100324.34;;;3.93;81.92
57572;BME280;44459;43.522;24.470;2023-02-02T07:46:12;100317.94;;;4.09;82.05
57572;BME280;44459;43.522;24.470;2023-02-02T07:48:38;100315.94;;;4.27;81.46
57572;BME280;44459;43.522;24.470;2023-02-02T07:51:06;100307.06;;;4.50;80.23
57572;BME280;44459;43.522;24.470;2023-02-02T07:53:33;100300.78;;;4.72;78.27
57572;BME280;44459;43.522;24.470;2023-02-02T07:56:15;100300.88;;;5.04;76.92
57572;BME280;44459;43.522;24.470;2023-02-02T07:58:42;100301.59;;;5.29;76.17
57572;BME280;44459;43.522;24.470;2023-02-02T08:01:09;100287.38;;;5.50;75.53
57572;BME280;44459;43.522;24.470;2023-02-02T08:03:35;100281.81;;;5.71;71.73
57572;BME280;44459;43.522;24.470;2023-02-02T08:06:08;100279.78;;;5.94;72.28
57572;BME280;44459;43.522;24.470;2023-02-02T08:08:33;100280.53;;;6.23;71.58
57572;BME280;44459;43.522;24.470;2023-02-02T08:10:59;100281.09;;;6.47;70.84
57572;BME280;44459;43.522;24.470;2023-02-02T08:13:24;100267.63;;;6.69;69.44
57572;BME280;44459;43.522;24.470;2023-02-02T08:15:50;100266.38;;;6.92;66.86
57572;BME280;44459;43.522;24.470;2023-02-02T08:18:15;100250.19;;;7.13;66.70
57572;BME280;44459;43.522;24.470;2023-02-02T08:20:41;100248.81;;;7.33;64.41
57572;BME280;44459;43.522;24.470;2023-02-02T08:23:07;100247.34;;;7.46;64.16
57572;BME280;44459;43.522;24.470;2023-02-02T08:25:40;100259.78;;;7.56;61.98
57572;BME280;44459;43.522;24.470;2023-02-02T08:28:05;100255.56;;;7.66;61.54
57572;BME280;44459;43.522;24.470;2023-02-02T08:30:31;100256.47;;;7.68;62.72
57572;BME280;44459;43.522;24.470;2023-02-02T08:32:56;100268.91;;;7.76;60.65
57572;BME280;44459;43.522;24.470;2023-02-02T08:35:22;100272.47;;;7.81;60.11
57572;BME280;44459;43.522;24.470;2023-02-02T08:37:48;100276.78;;;7.78;61.57
57572;BME280;44459;43.522;24.470;2023-02-02T08:40:14;100272.38;;;7.75;61.92
57572;BME280;44459;43.522;24.470;2023-02-02T08:42:39;100272.38;;;7.74;61.41
57572;BME280;44459;43.522;24.470;2023-02-02T08:45:05;100273.22;;;7.74;62.84
57572;BME280;44459;43.522;24.470;2023-02-02T08:47:31;100272.38;;;7.75;63.91
57572;BME280;44459;43.522;24.470;2023-02-02T08:49:56;100265.34;;;7.74;63.85
57572;BME280;44459;43.522;24.470;2023-02-02T08:52:22;100256.69;;;7.80;64.37
57572;BME280;44459;43.522;24.470;2023-02-02T08:54:47;100262.28;;;7.98;65.00
57572;BME280;44459;43.522;24.470;2023-02-02T08:57:12;100258.97;;;8.13;63.67
57572;BME280;44459;43.522;24.470;2023-02-02T08:59:38;100253.09;;;8.26;61.79
57572;BME280;44459;43.522;24.470;2023-02-02T09:02:03;100238.34;;;8.35;61.93
57572;BME280;44459;43.522;24.470;2023-02-02T09:04:29;100236.75;;;8.45;61.07
57572;BME280;44459;43.522;24.470;2023-02-02T09:06:54;100239.56;;;8.57;61.70
57572;BME280;44459;43.522;24.470;2023-02-02T09:09:20;100238.88;;;8.72;62.24
57572;BME280;44459;43.522;24.470;2023-02-02T09:11:45;100244.34;;;8.87;61.49
57572;BME280;44459;43.522;24.470;2023-02-02T09:14:12;100239.25;;;9.00;59.91
57572;BME280;44459;43.522;24.470;2023-02-02T09:16:38;100237.56;;;9.05;61.09
57572;BME280;44459;43.522;24.470;2023-02-02T09:19:04;100238.50;;;9.10;58.43
57572;BME280;44459;43.522;24.470;2023-02-02T09:21:30;100233.16;;;9.04;57.10
57572;BME280;44459;43.522;24.470;2023-02-02T09:24:05;100228.91;;;9.16;58.58
57572;BME280;44459;43.522;24.470;2023-02-02T09:26:31;100227.16;;;9.18;57.31
57572;BME280;44459;43.522;24.470;2023-02-02T09:29:02;100220.97;;;9.13;55.04
57572;BME280;44459;43.522;24.470;2023-02-02T09:31:30;100215.72;;;9.14;55.06
57572;BME280;44459;43.522;24.470;2023-02-02T09:34:03;100206.91;;;9.10;56.00
57572;BME280;44459;43.522;24.470;2023-02-02T09:36:30;100207.78;;;9.11;57.43
57572;BME280;44459;43.522;24.470;2023-02-02T09:38:56;100192.00;;;9.13;56.50
57572;BME280;44459;43.522;24.470;2023-02-02T09:49:36;100187.84;;;9.33;57.48
57572;BME280;44459;43.522;24.470;2023-02-02T09:52:17;100184.41;;;9.40;56.26
57572;BME280;44459;43.522;24.470;2023-02-02T09:54:47;100185.31;;;9.43;53.01
57572;BME280;44459;43.522;24.470;2023-02-02T09:57:21;100179.16;;;9.43;52.98
57572;BME280;44459;43.522;24.470;2023-02-02T09:59:50;100187.88;;;9.36;51.40
57572;BME280;44459;43.522;24.470;2023-02-02T10:02:41;100171.13;;;9.34;53.68
57572;BME280;44459;43.522;24.470;2023-02-02T10:05:17;100161.56;;;9.40;53.37
57572;BME280;44459;43.522;24.470;2023-02-02T10:07:48;100166.88;;;9.48;54.09
57572;BME280;44459;43.522;24.470;2023-02-02T10:10:39;100160.81;;;9.53;52.39
57572;BME280;44459;43.522;24.470;2023-02-02T10:13:28;100160.00;;;9.60;51.53
57572;BME280;44459;43.522;24.470;2023-02-02T10:16:15;100155.56;;;9.58;51.84
57572;BME280;44459;43.522;24.470;2023-02-02T10:18:50;100155.66;;;9.67;52.66
57572;BME280;44459;43.522;24.470;2023-02-02T10:21:38;100161.75;;;9.63;52.25
57572;BME280;44459;43.522;24.470;2023-02-02T10:24:19;100154.72;;;9.60;51.40
57572;BME280;44459;43.522;24.470;2023-02-02T10:26:52;100151.19;;;9.57;52.85
57572;BME280;44459;43.522;24.470;2023-02-02T10:39:32;100157.50;;;9.80;53.77
57572;BME280;44459;43.522;24.470;2023-02-02T10:44:59;100141.63;;;9.71;54.44
57572;BME280;44459;43.522;24.470;2023-02-02T10:47:31;100142.50;;;9.70;55.96
57572;BME280;44459;43.522;24.470;2023-02-02T10:50:18;100143.31;;;9.63;55.86
57572;BME280;44459;43.522;24.470;2023-02-02T10:53:01;100126.56;;;9.56;55.55
57572;BME280;44459;43.522;24.470;2023-02-02T10:55:41;100139.63;;;9.40;55.84
57572;BME280;44459;43.522;24.470;2023-02-02T11:03:18;100146.97;;;8.88;58.48
57572;BME280;44459;43.522;24.470;2023-02-02T11:05:44;100139.63;;;8.62;60.48
57572;BME280;44459;43.522;24.470;2023-02-02T11:08:33;100154.28;;;8.40;62.52
57572;BME280;44459;43.522;24.470;2023-02-02T11:11:22;100171.66;;;8.30;64.09
57572;BME280;44459;43.522;24.470;2023-02-02T11:16:22;100199.41;;;7.60;68.33
57572;BME280;44459;43.522;24.470;2023-02-02T11:18:48;100216.31;;;7.27;71.07
57572;BME280;44459;43.522;24.470;2023-02-02T11:21:26;100221.94;;;7.01;71.54
57572;BME280;44459;43.522;24.470;2023-02-02T11:24:04;100237.22;;;6.79;70.76
57572;BME280;44459;43.522;24.470;2023-02-02T11:26:47;100252.25;;;6.45;72.93
57572;BME280;44459;43.522;24.470;2023-02-02T11:29:17;100256.19;;;6.28;78.07
57572;BME280;44459;43.522;24.470;2023-02-02T11:31:45;100253.16;;;6.10;81.92
57572;BME280;44459;43.522;24.470;2023-02-02T11:34:25;100275.25;;;5.54;88.22
57572;BME280;44459;43.522;24.470;2023-02-02T11:39:26;100257.19;;;4.72;99.48
57572;BME280;44459;43.522;24.470;2023-02-02T11:42:21;100258.25;;;4.49;100.00
57572;BME280;44459;43.522;24.470;2023-02-02T11:44:56;100244.84;;;4.38;100.00
57572;BME280;44459;43.522;24.470;2023-02-02T11:47:27;100247.22;;;4.31;100.00
57572;BME280;44459;43.522;24.470;2023-02-02T11:49:55;100245.47;;;4.30;100.00
57572;BME280;44459;43.522;24.470;2023-02-02T11:52:23;100246.56;;;4.36;100.00
57572;BME280;44459;43.522;24.470;2023-02-02T11:54:58;100225.66;;;4.38;100.00
57572;BME280;44459;43.522;24.470;2023-02-02T11:57:26;100215.78;;;4.28;100.00
57572;BME280;44459;43.522;24.470;2023-02-02T12:02:33;100203.28;;;4.46;100.00
57572;BME280;44459;43.522;24.470;2023-02-02T12:07:50;100205.50;;;4.62;100.00
57572;BME280;44459;43.522;24.470;2023-02-02T12:10:26;100217.16;;;4.73;100.00
57572;BME280;44459;43.522;24.470;2023-02-02T12:13:02;100216.41;;;4.77;100.00
57572;BME280;44459;43.522;24.470;2023-02-02T12:18:11;100248.69;;;4.79;97.54
57572;BME280;44459;43.522;24.470;2023-02-02T12:20:44;100240.69;;;4.73;97.89
57572;BME280;44459;43.522;24.470;2023-02-02T12:26:27;100234.81;;;4.52;100.00
57572;BME280;44459;43.522;24.470;2023-02-02T12:29:21;100220.59;;;4.42;100.00
57572;BME280;44459;43.522;24.470;2023-02-02T12:40:06;100166.16;;;4.57;100.00
57572;BME280;44459;43.522;24.470;2023-02-02T12:45:48;100183.91;;;4.69;98.16
57572;BME280;44459;43.522;24.470;2023-02-02T12:51:02;100174.34;;;4.70;96.24
57572;BME280;44459;43.522;24.470;2023-02-02T12:54:02;100193.38;;;4.64;96.49
57572;BME280;44459;43.522;24.470;2023-02-02T13:00:11;100200.00;;;4.53;95.09
57572;BME280;44459;43.522;24.470;2023-02-02T13:03:08;100193.72;;;4.46;96.13
57572;BME280;44459;43.522;24.470;2023-02-02T13:08:30;100215.50;;;4.47;95.26
57572;BME280;44459;43.522;24.470;2023-02-02T13:11:12;100189.38;;;4.47;96.06
57572;BME280;44459;43.522;24.470;2023-02-02T13:14:16;100178.22;;;4.52;95.52
57572;BME280;44459;43.522;24.470;2023-02-02T13:16:47;100190.38;;;4.52;94.17
57572;BME280;44459;43.522;24.470;2023-02-02T13:19:33;100188.63;;;4.51;93.92
57572;BME280;44459;43.522;24.470;2023-02-02T13:22:01;100193.09;;;4.55;94.08
57572;BME280;44459;43.522;24.470;2023-02-02T13:24:35;100189.56;;;4.53;94.09
57572;BME280;44459;43.522;24.470;2023-02-02T13:27:03;100160.94;;;4.57;93.06
57572;BME280;44459;43.522;24.470;2023-02-02T13:29:41;100163.66;;;4.62;92.61
57572;BME280;44459;43.522;24.470;2023-02-02T13:34:44;100180.16;;;4.60;91.53
57572;BME280;44459;43.522;24.470;2023-02-02T13:40:00;100181.84;;;4.57;91.57
57572;BME280;44459;43.522;24.470;2023-02-02T13:42:37;100174.69;;;4.50;92.23
57572;BME280;44459;43.522;24.470;2023-02-02T13:45:47;100176.34;;;4.48;92.45
57572;BME280;44459;43.522;24.470;2023-02-02T13:53:36;100175.25;;;4.40;92.88
57572;BME280;44459;43.522;24.470;2023-02-02T13:56:19;100179.59;;;4.40;93.24
57572;BME280;44459;43.522;24.470;2023-02-02T14:01:20;100182.97;;;4.37;93.33
57572;BME280;44459;43.522;24.470;2023-02-02T14:03:54;100196.94;;;4.38;92.77
57572;BME280;44459;43.522;24.470;2023-02-02T14:06:22;100184.63;;;4.34;92.89
57572;BME280;44459;43.522;24.470;2023-02-02T14:08:55;100199.53;;;4.38;93.54
57572;BME280;44459;43.522;24.470;2023-02-02T14:11:31;100196.91;;;4.36;93.36
57572;BME280;44459;43.522;24.470;2023-02-02T14:14:09;100206.41;;;4.34;93.48
57572;BME280;44459;43.522;24.470;2023-02-02T14:34:39;100216.00;;;4.34;92.98
57572;BME280;44459;43.522;24.470;2023-02-02T14:45:43;100227.63;;;4.17;92.80
57572;BME280;44459;43.522;24.470;2023-02-02T14:48:21;100218.94;;;4.16;93.10
57572;BME280;44459;43.522;24.470;2023-02-02T14:50:54;100221.41;;;4.13;92.89
57572;BME280;44459;43.522;24.470;2023-02-02T14:53:30;100215.19;;;4.10;93.36
57572;BME280;44459;43.522;24.470;2023-02-02T14:56:08;100224.63;;;4.04;93.41
57572;BME280;44459;43.522;24.470;2023-02-02T14:58:36;100219.25;;;4.00;93.64
57572;BME280;44459;43.522;24.470;2023-02-02T15:03:55;100241.69;;;3.93;94.21
57572;BME280;44459;43.522;24.470;2023-02-02T15:14:50;100268.75;;;3.95;94.70
57572;BME280;44459;43.522;24.470;2023-02-02T15:19:51;100253.66;;;3.87;95.08
57572;BME280;44459;43.522;24.470;2023-02-02T15:22:37;100262.28;;;3.84;95.19
57572;BME280;44459;43.522;24.470;2023-02-02T15:25:17;100248.16;;;3.79;95.40
57572;BME280;44459;43.522;24.470;2023-02-02T15:27:50;100259.47;;;3.78;95.51